Lagos - Oshodi, Nigeria

1:49 AM WAT on July 11, 2014 (GMT +0100)
Murtala Muhammed (DNMM) Elev 125 ft | 6.58 °N, 3.32 °E | Change Station

Current weather conditions updated 49 minutes ago

Partly Cloudy
Partly Cloudy
77 °F
Feels Like 77 °F
N
2
Wind Variable Wind from Variable

Today is forecast to be nearly the same temperature as yesterday. Morning thunderstorms.

Today
High -- | Low -- °F
--% Chance of Precip.
Yesterday
High -- | Low -- °F
Precip. -- in
6:37 AM 7:06 PM
Waxing Gibbous, 97% visible
Pressure 30.04 in
Visibility 6.2 miles
Clouds Few 900 ft
Dew Point 75 °F
Humidity 94%
Rainfall 0.00 in
Snow Depth Not available.
UV 0 out of 12
Pollen Not available.
Air Quality Not available.
Flu Activity Not available.
METAR DNMM 110000Z VRB02KT 9999 FEW009 25/24 Q1017 NOSIG

More Conditions Fewer Conditions

Pressure 30.04 in
Visibility 6.2 miles
Clouds Few 900 ft
Dew Point 75 °F
Humidity 94%
Rainfall 0.00 in
Snow Depth Not available.
UV 0 out of 12
Pollen Not available.
Air Quality Not available.
Flu Activity Not available.
METAR DNMM 110000Z VRB02KT 9999 FEW009 25/24 Q1017 NOSIG

More Conditions Fewer Conditions

10-Day Weather Forecast

Almanac

Astronomy

Jul. 11, 2014 Rise Set
Actual Time 6:37 AM WAT 7:06 PM WAT
Civil Twilight 6:15 AM WAT 7:28 PM WAT
Nautical Twilight 5:48 AM WAT 7:55 PM WAT
Astronomical Twilight 5:22 AM WAT 8:21 PM WAT
Moon 6:14 PM WAT 5:23 AM WAT
Length of Visible Light 13h 13m
Length of Day
12h 28m
Tomorrow will be 0m 9s shorter.
Waxing Gibbous, 97% of the Moon is Illuminated
Jul 10
Waxing Gibbous
Jul 12
Full
Jul 18
Last Quarter
Jul 26
New
Aug 3
First Quarter

Yesterday's Extremes

Country Highs Country Lows

Community

WunderPhotos

Upload Photos

1,732,316 photos uploaded!

Nearby

Snow Depth

Not available.

Earthquake Activity

City Distance Mag. Time & Date
No recent earthquake activity has been reported nearby.
Minimum magnitude displayed is 2.5.

Coastal Water Temperatures

Place Temperature
No Stations Reporting

Nearby Weather Stations

Station Location Temp. Heat Index Dew Point Humidity Wind Precip. Elev Updated Type
Apapa 80.0 °F 85 °F 75 °F 85% West  at  1.0 mph 0.00 in / hr 68 ft 1:43 AM WAT Normal
Lekki 79.8 °F 84 °F 75 °F 85% WSW  at  9.0 mph 0.00 in / hr 39 ft 1:42 AM WAT Normal

Show More Stations Show Fewer Stations